createdAt,value
2018-11-06T00:00:22.006Z,80.38
2018-11-06T00:02:57.163Z,79.66
2018-11-06T00:05:27.611Z,80.26
2018-11-06T00:07:56.815Z,80.00
2018-11-06T00:10:26.378Z,79.86
2018-11-06T00:12:55.729Z,79.95
2018-11-06T00:15:26.522Z,80.04
2018-11-06T00:17:56.857Z,80.08
2018-11-06T00:20:26.776Z,80.32
2018-11-06T00:22:56.135Z,80.88
2018-11-06T00:25:26.420Z,80.34
2018-11-06T00:27:56.686Z,80.77
2018-11-06T00:30:26.064Z,80.37
2018-11-06T00:32:56.427Z,80.20
2018-11-06T00:35:27.745Z,80.85
2018-11-06T00:37:56.980Z,80.59
2018-11-06T00:40:26.361Z,80.65
2018-11-06T00:42:58.262Z,80.51
2018-11-06T00:45:28.426Z,80.83
2018-11-06T00:47:58.383Z,81.08
2018-11-06T00:50:27.760Z,80.77
2018-11-06T00:52:57.107Z,80.72
2018-11-06T00:55:32.970Z,80.52
2018-11-06T00:58:02.487Z,80.43
2018-11-06T01:00:31.803Z,80.48
2018-11-06T01:03:01.030Z,80.10
2018-11-06T01:05:32.564Z,80.75
2018-11-06T01:08:01.921Z,80.57
2018-11-06T01:10:31.386Z,81.32
2018-11-06T01:13:03.236Z,81.25
2018-11-06T01:15:34.439Z,81.33
2018-11-06T01:18:03.940Z,80.94
2018-11-06T01:20:34.246Z,82.15
2018-11-06T01:23:03.695Z,81.94
2018-11-06T01:25:33.071Z,81.00
2018-11-06T01:28:02.483Z,81.55
2018-11-06T01:30:32.491Z,81.27
2018-11-06T01:33:03.175Z,81.28
2018-11-06T01:35:32.595Z,81.88
2018-11-06T01:38:02.840Z,82.00
2018-11-06T01:40:35.390Z,82.12
2018-11-06T01:43:04.877Z,81.90
2018-11-06T01:45:36.016Z,82.13
2018-11-06T01:48:13.187Z,81.64
2018-11-06T01:50:42.464Z,82.45
2018-11-06T01:53:13.116Z,82.19
2018-11-06T01:55:45.615Z,82.14
2018-11-06T01:58:15.017Z,82.25
2018-11-06T02:00:45.970Z,82.07
2018-11-06T02:03:16.014Z,82.01
2018-11-06T02:05:45.571Z,82.06
2018-11-06T02:08:14.882Z,82.05
2018-11-06T02:10:46.171Z,82.01
2018-11-06T02:13:16.474Z,81.96
2018-11-06T02:15:49.127Z,81.73
2018-11-06T02:18:18.573Z,82.41
2018-11-06T02:20:47.835Z,81.90
2018-11-06T02:23:17.882Z,81.53
2018-11-06T02:25:48.415Z,81.95
2018-11-06T02:28:18.678Z,81.65
2018-11-06T02:30:49.923Z,81.91
2018-11-06T02:33:19.955Z,81.88
2018-11-06T02:35:49.336Z,81.81
2018-11-06T02:38:18.820Z,82.37
2018-11-06T02:40:49.799Z,81.88
2018-11-06T02:43:19.843Z,81.62
2018-11-06T02:45:50.806Z,82.00
2018-11-06T02:48:20.326Z,82.23
2018-11-06T02:50:49.733Z,81.86
2018-11-06T02:53:19.040Z,81.63
2018-11-06T02:55:50.128Z,81.90
2018-11-06T02:58:20.555Z,81.42
2018-11-06T03:00:51.014Z,81.95
2018-11-06T03:03:20.382Z,81.71
2018-11-06T03:05:50.310Z,81.54
2018-11-06T03:08:20.532Z,82.44
2018-11-06T03:10:49.835Z,81.48
2018-11-06T03:13:20.145Z,81.49
2018-11-06T03:15:49.973Z,81.10
2018-11-06T03:18:19.676Z,80.79
2018-11-06T03:20:50.494Z,80.76
2018-11-06T03:23:20.184Z,80.55
2018-11-06T03:25:49.480Z,80.80
2018-11-06T03:28:20.228Z,80.78
2018-11-06T03:30:50.242Z,81.23
2018-11-06T03:33:19.524Z,80.30
2018-11-06T03:35:48.900Z,80.61
2018-11-06T03:38:18.311Z,79.62
2018-11-06T03:40:47.685Z,80.10
2018-11-06T03:43:25.094Z,80.68
2018-11-06T03:45:54.471Z,81.65
2018-11-06T03:48:25.185Z,81.89
2018-11-06T03:50:55.370Z,81.52
2018-11-06T03:53:24.725Z,81.49
2018-11-06T03:55:54.081Z,81.04
2018-11-06T03:58:23.369Z,81.34
2018-11-06T04:00:54.139Z,81.45
2018-11-06T04:03:23.412Z,81.26
2018-11-06T04:05:55.844Z,80.85
2018-11-06T04:08:26.015Z,81.05
2018-11-06T04:10:55.958Z,80.96
2018-11-06T04:13:26.053Z,80.82
2018-11-06T04:15:56.337Z,81.19
2018-11-06T04:18:28.225Z,80.98
2018-11-06T04:20:58.810Z,81.49
2018-11-06T04:23:28.124Z,81.30
2018-11-06T04:26:04.445Z,81.23
2018-11-06T04:28:33.871Z,80.79
2018-11-06T04:31:09.547Z,80.77
2018-11-06T04:33:40.518Z,81.45
2018-11-06T04:36:10.108Z,80.98
2018-11-06T04:38:39.356Z,81.19
2018-11-06T04:41:08.693Z,81.05
2018-11-06T04:43:39.061Z,81.13
2018-11-06T04:46:09.836Z,81.21
2018-11-06T04:48:39.196Z,81.40
2018-11-06T04:51:08.607Z,82.10
2018-11-06T04:53:44.540Z,82.60
2018-11-06T04:56:13.880Z,83.47
2018-11-06T04:58:44.098Z,83.29
2018-11-06T05:01:15.009Z,83.25
2018-11-06T05:03:47.420Z,83.29
2018-11-06T05:06:21.094Z,83.05
2018-11-06T05:08:51.722Z,82.69
2018-11-06T05:11:21.051Z,82.62
2018-11-06T05:13:51.336Z,82.61
2018-11-06T05:16:20.824Z,82.41
2018-11-06T05:18:52.245Z,82.02
2018-11-06T05:21:22.891Z,82.53
2018-11-06T05:23:52.343Z,82.11
2018-11-06T05:26:21.978Z,81.66
2018-11-06T05:28:53.819Z,81.77
2018-11-06T05:31:23.271Z,81.20
2018-11-06T05:33:54.808Z,81.17
2018-11-06T05:36:28.633Z,80.91
2018-11-06T05:38:58.030Z,81.06
2018-11-06T05:41:27.339Z,80.34
2018-11-06T05:44:01.222Z,80.72
2018-11-06T05:46:36.674Z,80.33
2018-11-06T05:49:06.740Z,80.25
2018-11-06T05:51:38.714Z,80.12
2018-11-06T05:54:08.144Z,80.06
2018-11-06T05:56:37.766Z,80.60
2018-11-06T05:59:06.990Z,80.19
2018-11-06T06:01:38.538Z,80.72
2018-11-06T06:04:08.001Z,81.05
2018-11-06T06:06:38.088Z,81.44
2018-11-06T06:09:08.645Z,81.34
2018-11-06T06:11:38.151Z,81.12
2018-11-06T06:14:08.409Z,80.98
2018-11-06T06:16:52.435Z,81.30
2018-11-06T06:19:21.753Z,80.81
2018-11-06T06:21:51.915Z,81.21
2018-11-06T06:24:22.249Z,81.65
2018-11-06T06:26:51.826Z,82.18
2018-11-06T06:29:21.105Z,83.02
2018-11-06T06:31:52.607Z,83.35
2018-11-06T06:34:22.564Z,82.90
2018-11-06T06:36:52.791Z,82.82
2018-11-06T06:39:32.032Z,82.71
2018-11-06T06:42:02.431Z,82.61
2018-11-06T06:44:32.627Z,82.25
2018-11-06T06:47:09.218Z,81.50
2018-11-06T06:49:39.567Z,81.41
2018-11-06T06:52:09.120Z,80.77
2018-11-06T06:54:38.626Z,80.70
2018-11-06T06:57:10.025Z,80.26
2018-11-06T06:59:40.074Z,80.64
2018-11-06T07:02:09.629Z,80.82
2018-11-06T07:04:39.968Z,80.19
2018-11-06T07:07:09.388Z,80.13
2018-11-06T07:09:39.459Z,80.00
2018-11-06T07:12:09.490Z,79.99
2018-11-06T07:14:39.465Z,80.42
2018-11-06T07:17:10.357Z,80.06
2018-11-06T07:26:28.892Z,80.91
2018-11-06T07:28:58.327Z,80.76
2018-11-06T07:31:31.624Z,80.02
2018-11-06T07:34:02.198Z,80.28
2018-11-06T07:36:31.584Z,80.43
2018-11-06T07:39:03.359Z,80.10
2018-11-06T07:41:33.556Z,81.00
2018-11-06T07:44:04.404Z,80.96
2018-11-06T07:46:33.834Z,80.92
2018-11-06T07:49:03.435Z,81.37
2018-11-06T07:51:34.919Z,81.08
2018-11-06T07:54:04.894Z,81.33
2018-11-06T07:56:34.837Z,81.40
2018-11-06T07:59:04.171Z,81.46
2018-11-06T08:01:33.671Z,81.46
2018-11-06T08:04:03.148Z,82.03
2018-11-06T08:06:33.744Z,81.85
2018-11-06T08:09:03.808Z,81.77
2018-11-06T08:11:33.084Z,82.08
2018-11-06T08:14:02.533Z,81.94
2018-11-06T08:16:32.037Z,82.33
2018-11-06T08:19:01.409Z,81.69
2018-11-06T08:21:30.784Z,81.53
2018-11-06T08:24:01.978Z,81.65
2018-11-06T08:26:33.142Z,81.70
2018-11-06T08:29:02.832Z,81.22
2018-11-06T08:31:33.055Z,81.40
2018-11-06T08:34:03.499Z,81.27
2018-11-06T08:36:34.323Z,80.83
2018-11-06T08:39:04.668Z,79.90
2018-11-06T08:41:34.696Z,80.29
2018-11-06T08:44:04.075Z,79.57
2018-11-06T08:46:34.461Z,79.50
2018-11-06T08:49:04.381Z,79.14
2018-11-06T08:51:35.208Z,79.19
2018-11-06T08:54:04.551Z,78.87
2018-11-06T08:56:35.587Z,77.74
2018-11-06T08:59:05.701Z,77.43
2018-11-06T09:01:35.760Z,76.84
2018-11-06T09:04:06.637Z,76.80
2018-11-06T09:06:36.781Z,77.20
2018-11-06T09:09:08.984Z,76.48
2018-11-06T09:11:38.752Z,76.67
2018-11-06T09:14:09.034Z,75.72
2018-11-06T09:16:43.552Z,75.49
2018-11-06T09:19:13.798Z,75.43
2018-11-06T09:21:43.138Z,75.26
2018-11-06T09:24:13.326Z,75.21
2018-11-06T09:26:42.731Z,75.73
2018-11-06T09:29:12.677Z,75.14
2018-11-06T09:31:43.167Z,75.42
2018-11-06T09:34:13.177Z,75.81
2018-11-06T09:36:42.589Z,77.30
2018-11-06T09:39:13.219Z,77.06
2018-11-06T09:41:42.873Z,76.67
2018-11-06T09:44:15.424Z,77.65
2018-11-06T09:46:53.301Z,77.84
2018-11-06T09:49:22.672Z,77.21
2018-11-06T09:51:52.563Z,78.18
2018-11-06T09:54:29.050Z,79.06
2018-11-06T09:57:07.004Z,79.77
2018-11-06T09:59:42.369Z,80.76
2018-11-06T10:02:16.241Z,81.45
2018-11-06T10:04:52.315Z,84.34
2018-11-06T10:07:37.223Z,86.43
2018-11-06T10:10:12.962Z,86.41
2018-11-06T10:12:56.238Z,86.59
2018-11-06T10:15:29.492Z,87.26
2018-11-06T10:18:01.943Z,86.92
2018-11-06T10:20:39.392Z,86.12
2018-11-06T10:23:10.392Z,85.60
2018-11-06T10:25:49.823Z,85.13
2018-11-06T10:28:21.228Z,84.64
2018-11-06T10:31:03.215Z,82.75
2018-11-06T10:33:41.490Z,83.24
2018-11-06T10:36:17.014Z,82.60
2018-11-06T10:38:58.883Z,82.41
2018-11-06T10:41:32.713Z,81.54
2018-11-06T10:45:48.324Z,80.98
2018-11-06T10:48:26.798Z,79.40
2018-11-06T10:51:00.841Z,79.85
2018-11-06T10:53:38.673Z,78.73
2018-11-06T10:56:19.960Z,78.58
2018-11-06T10:59:00.615Z,78.22
2018-11-06T11:01:36.224Z,78.12
2018-11-06T11:04:15.302Z,77.74
2018-11-06T11:06:52.433Z,77.95
2018-11-06T11:09:27.252Z,77.77
2018-11-06T11:12:04.953Z,78.11
2018-11-06T11:14:36.299Z,77.29
2018-11-06T11:17:09.168Z,78.23
2018-11-06T11:19:42.025Z,78.26
2018-11-06T11:22:21.180Z,77.65
2018-11-06T11:24:54.224Z,77.84
2018-11-06T11:27:31.037Z,77.58
2018-11-06T11:30:05.137Z,77.65
2018-11-06T11:32:38.708Z,76.88
2018-11-06T11:35:11.529Z,77.65
2018-11-06T11:37:50.501Z,76.90
2018-11-06T11:40:33.207Z,77.41
2018-11-06T11:43:06.450Z,76.92
2018-11-06T11:45:41.724Z,77.14
2018-11-06T11:48:21.055Z,76.88
2018-11-06T11:50:53.684Z,77.52
2018-11-06T11:53:30.718Z,77.36
2018-11-06T11:56:25.802Z,77.30
2018-11-06T11:59:00.872Z,77.58
2018-11-06T12:01:33.379Z,77.45
2018-11-06T12:04:10.853Z,76.05
2018-11-06T12:06:50.065Z,76.00
2018-11-06T12:09:26.388Z,75.98
2018-11-06T12:12:07.170Z,75.71
2018-11-06T12:14:44.532Z,75.43
2018-11-06T12:17:19.769Z,75.77
2018-11-06T12:19:59.726Z,75.32
2018-11-06T12:22:35.577Z,74.88
2018-11-06T12:25:16.831Z,75.82
2018-11-06T12:27:55.545Z,75.67
2018-11-06T12:30:33.287Z,75.42
2018-11-06T12:33:07.289Z,75.50
2018-11-06T12:35:45.061Z,75.19
2018-11-06T12:38:20.455Z,75.88
2018-11-06T12:41:01.131Z,74.63
2018-11-06T12:43:38.289Z,74.18
2018-11-06T12:46:24.337Z,74.28
2018-11-06T12:49:01.821Z,75.25
2018-11-06T12:51:39.331Z,76.13
2018-11-06T12:54:16.314Z,76.02
2018-11-06T12:56:51.687Z,77.18
2018-11-06T12:59:25.803Z,77.67
2018-11-06T13:02:01.048Z,77.61
2018-11-06T13:04:41.860Z,77.52
2018-11-06T13:07:15.788Z,78.07
2018-11-06T13:09:47.459Z,78.94
2018-11-06T13:12:29.460Z,79.69
2018-11-06T13:15:08.800Z,80.53
2018-11-06T13:17:45.475Z,80.93
2018-11-06T13:20:18.635Z,81.36
2018-11-06T13:25:35.588Z,81.94
2018-11-06T13:28:09.830Z,82.49
2018-11-06T13:30:42.110Z,82.23
2018-11-06T13:33:27.597Z,82.98
2018-11-06T13:36:03.932Z,82.81
2018-11-06T13:38:44.584Z,82.55
2018-11-06T13:41:26.433Z,82.84
2018-11-06T13:44:06.090Z,82.84
2018-11-06T13:46:41.815Z,82.57
2018-11-06T13:49:15.019Z,82.33
2018-11-06T13:51:51.590Z,82.27
2018-11-06T13:54:26.182Z,82.72
2018-11-06T13:56:59.970Z,82.75
2018-11-06T13:59:33.510Z,82.62
2018-11-06T14:02:08.256Z,83.17
2018-11-06T14:04:46.321Z,83.17
2018-11-06T14:07:29.472Z,83.64
2018-11-06T14:10:10.069Z,84.08
2018-11-06T14:12:47.257Z,84.38
2018-11-06T14:20:42.409Z,84.53
2018-11-06T14:23:16.676Z,84.40
2018-11-06T14:25:49.221Z,84.84
2018-11-06T14:28:25.067Z,84.76
2018-11-06T14:30:57.854Z,84.41
2018-11-06T14:33:34.679Z,84.21
2018-11-06T14:36:19.562Z,84.00
2018-11-06T14:41:47.157Z,83.74
2018-11-06T14:44:29.161Z,83.64
2018-11-06T14:47:13.309Z,83.79
2018-11-06T14:49:49.173Z,83.83
2018-11-06T14:52:28.939Z,83.58
2018-11-06T14:55:04.552Z,83.74
2018-11-06T14:57:43.068Z,83.97
2018-11-06T15:00:16.626Z,84.00
2018-11-06T15:02:54.272Z,84.12
2018-11-06T15:05:28.720Z,84.20
2018-11-06T15:08:01.451Z,84.28
2018-11-06T15:10:39.787Z,84.36
2018-11-06T15:13:17.796Z,84.22
2018-11-06T15:15:53.185Z,84.27
2018-11-06T15:18:38.472Z,84.81
2018-11-06T15:21:15.394Z,84.59
2018-11-06T15:23:52.258Z,84.79
2018-11-06T15:26:23.593Z,84.73
2018-11-06T15:28:59.614Z,84.79
2018-11-06T15:31:35.060Z,85.22
2018-11-06T15:34:11.719Z,84.65
2018-11-06T15:36:42.513Z,85.00
2018-11-06T15:39:20.781Z,84.52
2018-11-06T15:41:58.906Z,84.64
2018-11-06T15:44:34.924Z,84.58
2018-11-06T15:50:04.533Z,84.73
2018-11-06T15:52:41.003Z,85.48
2018-11-06T15:58:04.360Z,84.64
2018-11-06T16:00:49.095Z,84.56
2018-11-06T16:03:29.711Z,84.45
2018-11-06T16:09:06.339Z,84.39
2018-11-06T16:11:37.886Z,84.04
2018-11-06T16:14:15.007Z,84.10
2018-11-06T16:16:49.262Z,83.89
2018-11-06T16:19:32.553Z,84.09
2018-11-06T16:22:17.497Z,84.32
2018-11-06T16:24:59.913Z,84.12
2018-11-06T16:30:32.062Z,84.49
2018-11-06T16:33:13.715Z,84.25
2018-11-06T16:35:58.375Z,84.53
2018-11-06T16:38:39.159Z,84.28
2018-11-06T16:41:19.880Z,84.26
2018-11-06T16:43:56.405Z,83.81
2018-11-06T16:46:30.284Z,84.42
2018-11-06T16:49:02.355Z,84.30
2018-11-06T16:51:37.799Z,84.71
2018-11-06T16:54:19.272Z,84.88
2018-11-06T16:56:52.315Z,84.75
2018-11-06T16:59:38.190Z,84.61
2018-11-06T17:02:12.392Z,84.90
2018-11-06T17:04:57.528Z,84.90
2018-11-06T17:07:35.977Z,84.94
2018-11-06T17:10:12.281Z,84.96
2018-11-06T17:12:50.650Z,85.46
2018-11-06T17:15:26.633Z,85.16
2018-11-06T17:18:05.627Z,85.14
2018-11-06T17:20:43.253Z,85.08
2018-11-06T17:26:05.760Z,84.83
2018-11-06T17:28:40.531Z,84.69
2018-11-06T17:31:13.099Z,85.10
2018-11-06T17:33:47.113Z,85.07
2018-11-06T17:36:27.784Z,85.36
2018-11-06T17:39:05.433Z,85.23
2018-11-06T17:41:40.853Z,86.00
2018-11-06T17:44:20.676Z,86.75
2018-11-06T17:46:59.362Z,86.44
2018-11-06T17:49:36.816Z,86.53
2018-11-06T17:52:13.744Z,86.66
2018-11-06T17:54:48.989Z,86.27
2018-11-06T17:57:23.650Z,86.39
2018-11-06T18:00:10.677Z,85.88
2018-11-06T18:02:46.805Z,86.39
2018-11-06T18:05:27.465Z,86.39
2018-11-06T18:08:07.443Z,86.42
2018-11-06T18:17:46.213Z,85.80
2018-11-06T18:20:23.116Z,85.56
2018-11-06T18:23:07.361Z,85.47
2018-11-06T18:25:44.223Z,85.49
2018-11-06T18:28:32.370Z,85.21
2018-11-06T18:31:03.805Z,85.16
2018-11-06T18:33:40.393Z,84.54
2018-11-06T18:36:20.468Z,84.49
2018-11-06T18:39:01.156Z,84.35
2018-11-06T18:41:34.607Z,84.05
2018-11-06T18:44:12.616Z,83.92
2018-11-06T18:46:48.755Z,83.98
2018-11-06T18:49:23.816Z,84.42
2018-11-06T18:54:54.805Z,84.55
2018-11-06T18:57:26.996Z,84.24
2018-11-06T19:00:00.490Z,83.96
2018-11-06T19:02:31.047Z,83.22
2018-11-06T19:05:02.745Z,82.62
2018-11-06T19:07:50.851Z,82.47
2018-11-06T19:10:25.265Z,82.75
2018-11-06T19:12:57.407Z,82.76
2018-11-06T19:15:32.276Z,82.62
2018-11-06T19:18:05.051Z,82.83
2018-11-06T19:23:38.829Z,82.90
2018-11-06T19:26:11.045Z,82.68
2018-11-06T19:28:50.395Z,82.39
2018-11-06T19:31:24.335Z,82.26
2018-11-06T19:34:04.801Z,82.12
2018-11-06T19:36:37.851Z,81.51
2018-11-06T19:39:17.850Z,81.55
2018-11-06T19:41:49.294Z,80.67
2018-11-06T19:44:29.733Z,81.07
2018-11-06T19:47:02.762Z,80.98
2018-11-06T19:49:39.793Z,80.68
2018-11-06T19:52:10.741Z,80.63
2018-11-06T19:54:43.015Z,80.96
2018-11-06T19:57:16.127Z,81.12
2018-11-06T19:59:53.041Z,81.49
2018-11-06T20:02:22.090Z,80.96
2018-11-06T20:04:51.010Z,80.84
2018-11-06T20:07:20.203Z,80.88
2018-11-06T20:09:49.982Z,80.69
2018-11-06T20:12:18.998Z,80.85
2018-11-06T20:14:49.630Z,80.60
2018-11-06T20:17:18.706Z,80.46
2018-11-06T20:19:47.680Z,81.01
2018-11-06T20:22:16.781Z,81.03
2018-11-06T20:24:45.671Z,81.07
2018-11-06T20:27:14.658Z,81.06
2018-11-06T20:29:44.828Z,81.30
2018-11-06T20:32:13.755Z,81.65
2018-11-06T20:34:42.694Z,81.78
2018-11-06T20:37:11.766Z,81.84
2018-11-06T20:39:40.886Z,81.80
2018-11-06T20:42:09.947Z,82.08
2018-11-06T20:44:38.841Z,81.58
2018-11-06T20:47:07.835Z,81.91
2018-11-06T20:49:36.926Z,81.24
2018-11-06T20:52:06.370Z,81.38
2018-11-06T20:54:35.362Z,81.30
2018-11-06T20:57:04.369Z,81.47
2018-11-06T20:59:33.406Z,81.45
2018-11-06T21:02:02.364Z,81.33
2018-11-06T21:04:31.271Z,81.28
2018-11-06T21:07:00.229Z,80.94
2018-11-06T21:09:29.191Z,81.32
2018-11-06T21:11:58.200Z,80.66
2018-11-06T21:14:28.537Z,80.72
2018-11-06T21:16:57.435Z,79.81
2018-11-06T21:19:26.440Z,79.62
2018-11-06T21:21:55.358Z,79.86
2018-11-06T21:24:24.436Z,79.57
2018-11-06T21:26:53.508Z,79.30
2018-11-06T21:29:22.412Z,79.41
2018-11-06T21:31:51.392Z,79.56
2018-11-06T21:34:26.986Z,80.31
2018-11-06T21:36:55.896Z,80.47
2018-11-06T21:39:24.835Z,79.64
2018-11-06T21:41:53.981Z,79.75
2018-11-06T21:44:22.933Z,80.17
2018-11-06T21:46:51.908Z,80.45
2018-11-06T21:49:20.899Z,79.94
2018-11-06T21:51:49.919Z,80.49
2018-11-06T21:54:18.843Z,80.63
2018-11-06T21:56:47.897Z,80.42
2018-11-06T21:59:17.009Z,81.15
2018-11-06T22:01:45.926Z,80.56
2018-11-06T22:04:14.778Z,80.48
2018-11-06T22:06:43.732Z,79.58
2018-11-06T22:09:12.712Z,79.93
2018-11-06T22:11:41.703Z,79.70
2018-11-06T22:14:10.706Z,79.47
2018-11-06T22:16:39.707Z,79.45
2018-11-06T22:19:08.695Z,78.84
2018-11-06T22:21:37.687Z,78.90
2018-11-06T22:24:06.554Z,79.23
2018-11-06T22:26:35.383Z,78.85
2018-11-06T22:29:04.335Z,79.23
2018-11-06T22:31:33.318Z,79.06
2018-11-06T22:34:02.226Z,79.79
2018-11-06T22:36:31.186Z,79.31
2018-11-06T22:39:00.335Z,79.35
2018-11-06T22:41:29.305Z,79.25
2018-11-06T22:43:58.214Z,79.16
2018-11-06T22:46:27.138Z,79.02
2018-11-06T22:48:56.076Z,78.96
2018-11-06T22:51:25.102Z,78.92
2018-11-06T22:53:53.977Z,79.04
2018-11-06T22:56:22.904Z,79.13
2018-11-06T22:58:51.908Z,79.37
2018-11-06T23:01:22.883Z,79.38
2018-11-06T23:03:52.370Z,79.66
2018-11-06T23:06:21.973Z,79.60
2018-11-06T23:08:50.919Z,79.64
2018-11-06T23:11:19.893Z,80.00
2018-11-06T23:13:48.881Z,80.26
2018-11-06T23:16:17.807Z,79.97
2018-11-06T23:18:46.722Z,80.48
2018-11-06T23:21:15.691Z,80.81
2018-11-06T23:23:44.715Z,81.04
2018-11-06T23:26:13.640Z,80.71
2018-11-06T23:28:42.523Z,81.14
2018-11-06T23:31:11.472Z,80.49
2018-11-06T23:33:40.401Z,80.06
2018-11-06T23:36:09.291Z,80.16
2018-11-06T23:38:38.222Z,79.76
2018-11-06T23:41:07.695Z,80.32
2018-11-06T23:43:36.758Z,80.07
2018-11-06T23:46:07.318Z,79.11
2018-11-06T23:48:36.237Z,79.23
2018-11-06T23:51:05.234Z,78.75
2018-11-06T23:53:34.187Z,79.07
2018-11-06T23:56:03.093Z,79.30
2018-11-06T23:58:31.971Z,79.00
